createdAt,value
2023-05-15T00:00:13.008Z,16.30
2023-05-15T00:01:12.943Z,16.40
2023-05-15T00:02:12.926Z,16.70
2023-05-15T00:03:12.924Z,16.40
2023-05-15T00:04:12.945Z,16.20
2023-05-15T00:05:12.759Z,16.20
2023-05-15T00:06:13.797Z,16.30
2023-05-15T00:07:13.867Z,16.30
2023-05-15T00:08:13.988Z,16.60
2023-05-15T00:09:13.086Z,16.50
2023-05-15T00:10:13.022Z,16.30
2023-05-15T00:11:12.906Z,16.40
2023-05-15T00:12:13.023Z,16.70
2023-05-15T00:13:12.970Z,16.50
2023-05-15T00:14:12.913Z,17.10
2023-05-15T00:15:12.709Z,17.00
2023-05-15T00:16:13.885Z,16.90
2023-05-15T00:17:12.868Z,16.90
2023-05-15T00:18:14.014Z,17.00
2023-05-15T00:19:13.033Z,17.00
2023-05-15T00:20:12.848Z,16.80
2023-05-15T00:21:13.981Z,16.70
2023-05-15T00:22:12.984Z,16.70
2023-05-15T00:23:13.088Z,16.60
2023-05-15T00:24:12.983Z,16.50
2023-05-15T00:25:12.901Z,16.50
2023-05-15T00:26:13.067Z,16.40
2023-05-15T00:27:13.016Z,16.40
2023-05-15T00:28:13.166Z,16.20
2023-05-15T00:29:13.245Z,16.20
2023-05-15T00:30:13.501Z,16.00
2023-05-15T00:31:13.577Z,16.10
2023-05-15T00:32:13.574Z,16.00
2023-05-15T00:33:13.667Z,15.80
2023-05-15T00:34:13.711Z,15.90
2023-05-15T00:35:13.684Z,15.70
2023-05-15T00:36:13.825Z,15.60
2023-05-15T00:37:13.793Z,15.50
2023-05-15T00:38:13.803Z,15.40
2023-05-15T00:39:13.820Z,15.40
2023-05-15T00:40:13.737Z,15.20
2023-05-15T00:41:13.757Z,15.20
2023-05-15T00:42:13.563Z,15.00
2023-05-15T00:43:13.603Z,15.10
2023-05-15T00:44:13.651Z,15.10
2023-05-15T00:45:13.732Z,15.20
2023-05-15T00:46:13.963Z,15.30
2023-05-15T00:47:13.119Z,15.10
2023-05-15T00:48:13.222Z,15.30
2023-05-15T00:49:13.426Z,15.50
2023-05-15T00:50:13.564Z,15.30
2023-05-15T00:51:13.490Z,15.60
2023-05-15T00:52:13.763Z,15.30
2023-05-15T00:53:13.996Z,15.40
2023-05-15T00:54:13.644Z,15.30
2023-05-15T00:55:13.590Z,15.20
2023-05-15T00:56:13.598Z,15.10
2023-05-15T00:57:13.439Z,15.20
2023-05-15T00:58:13.440Z,15.60
2023-05-15T00:59:13.296Z,15.80
2023-05-15T01:00:13.435Z,15.90
2023-05-15T01:01:13.610Z,15.90
2023-05-15T01:02:13.604Z,15.80
2023-05-15T01:03:14.150Z,16.20
2023-05-15T01:04:13.155Z,16.20
2023-05-15T01:05:13.049Z,16.00
2023-05-15T01:06:13.150Z,15.80
2023-05-15T01:07:13.152Z,15.80
2023-05-15T01:08:13.337Z,16.00
2023-05-15T01:09:13.155Z,16.00
2023-05-15T01:10:13.157Z,15.80
2023-05-15T01:11:12.972Z,15.70
2023-05-15T01:12:12.894Z,15.60
2023-05-15T01:13:13.094Z,15.40
2023-05-15T01:14:13.110Z,15.10
2023-05-15T01:15:13.130Z,15.00
2023-05-15T01:16:13.219Z,15.30
2023-05-15T01:17:13.094Z,15.50
2023-05-15T01:18:12.922Z,15.30
2023-05-15T01:19:13.304Z,15.40
2023-05-15T01:20:13.625Z,15.60
2023-05-15T01:21:13.724Z,15.80
2023-05-15T01:22:13.550Z,16.00
2023-05-15T01:23:13.433Z,16.10
2023-05-15T01:24:13.748Z,16.10
2023-05-15T01:25:13.713Z,16.00
2023-05-15T01:26:13.771Z,16.00
2023-05-15T01:27:13.651Z,16.00
2023-05-15T01:28:13.541Z,15.80
2023-05-15T01:29:13.607Z,15.90
2023-05-15T01:30:13.666Z,15.90
2023-05-15T01:31:13.879Z,15.90
2023-05-15T01:32:13.952Z,16.00
2023-05-15T01:33:13.115Z,15.80
2023-05-15T01:34:12.914Z,15.90
2023-05-15T01:35:13.111Z,15.90
2023-05-15T01:36:13.023Z,16.00
2023-05-15T01:37:13.083Z,16.00
2023-05-15T01:38:12.973Z,15.40
2023-05-15T01:39:13.018Z,15.50
2023-05-15T01:40:12.985Z,15.70
2023-05-15T01:41:13.019Z,15.50
2023-05-15T01:42:13.153Z,15.30
2023-05-15T01:43:13.348Z,15.50
2023-05-15T01:44:13.506Z,15.30
2023-05-15T01:45:13.273Z,15.20
2023-05-15T01:46:13.384Z,15.00
2023-05-15T01:47:13.405Z,14.90
2023-05-15T01:48:13.398Z,15.00
2023-05-15T01:49:13.319Z,14.90
2023-05-15T01:50:13.087Z,14.90
2023-05-15T01:51:13.362Z,14.80
2023-05-15T01:52:13.249Z,14.80
2023-05-15T01:53:13.172Z,14.60
2023-05-15T01:54:13.138Z,14.70
2023-05-15T01:55:13.094Z,15.10
2023-05-15T01:56:12.877Z,15.10
2023-05-15T01:57:13.214Z,15.10
2023-05-15T01:58:13.052Z,15.00
2023-05-15T01:59:12.982Z,15.00
2023-05-15T02:00:13.048Z,15.10
2023-05-15T02:01:12.822Z,15.20
2023-05-15T02:02:13.820Z,14.80
2023-05-15T02:03:13.993Z,14.70
2023-05-15T02:04:13.151Z,14.70
2023-05-15T02:05:13.072Z,14.80
2023-05-15T02:06:13.032Z,14.80
2023-05-15T02:07:13.277Z,14.90
2023-05-15T02:08:13.235Z,14.90
2023-05-15T02:09:13.395Z,14.70
2023-05-15T02:10:13.329Z,14.70
2023-05-15T02:11:13.331Z,14.70
2023-05-15T02:12:13.077Z,14.70
2023-05-15T02:13:12.989Z,14.80
2023-05-15T02:14:13.098Z,14.90
2023-05-15T02:15:18.197Z,14.80
2023-05-15T02:16:13.110Z,14.80
2023-05-15T02:17:13.232Z,14.70
2023-05-15T02:18:13.040Z,14.80
2023-05-15T02:19:13.071Z,14.70
2023-05-15T02:20:13.030Z,14.70
2023-05-15T02:21:13.180Z,14.50
2023-05-15T02:22:13.345Z,14.70
2023-05-15T02:23:13.271Z,14.60
2023-05-15T02:24:13.284Z,14.50
2023-05-15T02:25:13.511Z,14.50
2023-05-15T02:26:13.613Z,14.70
2023-05-15T02:27:13.473Z,14.90
2023-05-15T02:28:13.352Z,14.70
2023-05-15T02:29:13.641Z,14.50
2023-05-15T02:30:13.575Z,14.70
2023-05-15T02:31:13.726Z,14.40
2023-05-15T02:32:14.132Z,14.30
2023-05-15T02:33:13.072Z,14.40
2023-05-15T02:34:12.897Z,14.20
2023-05-15T02:35:12.951Z,14.50
2023-05-15T02:36:12.970Z,14.60
2023-05-15T02:37:12.970Z,14.40
2023-05-15T02:38:12.864Z,14.60
2023-05-15T02:39:13.787Z,14.70
2023-05-15T02:40:13.823Z,14.70
2023-05-15T02:41:13.720Z,14.50
2023-05-15T02:42:14.090Z,14.50
2023-05-15T02:43:13.244Z,14.50
2023-05-15T02:44:13.221Z,14.40
2023-05-15T02:45:13.243Z,14.50
2023-05-15T02:46:13.203Z,14.40
2023-05-15T02:47:13.005Z,14.50
2023-05-15T02:48:12.906Z,14.50
2023-05-15T02:49:12.990Z,14.20
2023-05-15T02:50:12.843Z,14.10
2023-05-15T02:51:13.829Z,14.40
2023-05-15T02:52:13.670Z,14.20
2023-05-15T02:53:13.596Z,13.90
2023-05-15T02:54:13.588Z,14.00
2023-05-15T02:55:13.582Z,14.00
2023-05-15T02:56:13.804Z,14.40
2023-05-15T02:57:13.890Z,14.40
2023-05-15T02:58:12.986Z,14.10
2023-05-15T02:59:12.890Z,14.30
2023-05-15T03:00:12.864Z,14.30
2023-05-15T03:01:14.749Z,14.20
2023-05-15T03:02:13.454Z,14.40
2023-05-15T03:03:13.698Z,14.60
2023-05-15T03:04:13.523Z,14.80
2023-05-15T03:05:13.551Z,15.00
2023-05-15T03:06:13.769Z,15.20
2023-05-15T03:07:13.879Z,15.30
2023-05-15T03:08:13.768Z,15.20
2023-05-15T03:09:13.585Z,14.90
2023-05-15T03:10:13.677Z,15.00
2023-05-15T03:11:14.326Z,14.90
2023-05-15T03:12:13.459Z,15.00
2023-05-15T03:13:13.552Z,14.80
2023-05-15T03:14:13.616Z,14.50
2023-05-15T03:15:13.533Z,14.10
2023-05-15T03:16:13.613Z,14.10
2023-05-15T03:17:13.675Z,14.20
2023-05-15T03:18:14.432Z,14.20
2023-05-15T03:19:13.636Z,13.90
2023-05-15T03:20:13.721Z,14.00
2023-05-15T03:21:13.777Z,14.10
2023-05-15T03:22:14.036Z,14.40
2023-05-15T03:23:12.905Z,14.80
2023-05-15T03:24:12.880Z,14.70
2023-05-15T03:25:12.804Z,14.50
2023-05-15T03:26:13.662Z,14.40
2023-05-15T03:27:13.692Z,14.20
2023-05-15T03:28:13.741Z,14.00
2023-05-15T03:29:13.991Z,13.70
2023-05-15T03:30:12.913Z,14.00
2023-05-15T03:31:12.954Z,14.00
2023-05-15T03:32:12.878Z,14.30
2023-05-15T03:33:12.732Z,13.90
2023-05-15T03:34:13.651Z,14.10
2023-05-15T03:35:13.448Z,14.20
2023-05-15T03:36:13.683Z,13.90
2023-05-15T03:37:13.406Z,14.10
2023-05-15T03:38:13.378Z,14.20
2023-05-15T03:39:13.479Z,14.20
2023-05-15T03:40:13.563Z,14.40
2023-05-15T03:41:13.596Z,14.10
2023-05-15T03:42:13.301Z,14.70
2023-05-15T03:43:13.208Z,14.40
2023-05-15T03:44:13.207Z,14.30
2023-05-15T03:45:13.232Z,14.20
2023-05-15T03:46:13.207Z,14.30
2023-05-15T03:47:13.024Z,14.40
2023-05-15T03:48:12.816Z,14.50
2023-05-15T03:49:13.774Z,14.30
2023-05-15T03:50:13.765Z,14.50
2023-05-15T03:51:14.157Z,14.40
2023-05-15T03:52:13.049Z,14.40
2023-05-15T03:53:14.188Z,14.30
2023-05-15T03:54:13.073Z,14.30
2023-05-15T03:55:13.207Z,14.50
2023-05-15T03:56:13.136Z,14.80
2023-05-15T03:57:13.050Z,14.50
2023-05-15T03:58:13.009Z,14.50
2023-05-15T03:59:12.759Z,14.60
2023-05-15T04:00:13.666Z,14.60
2023-05-15T04:01:13.709Z,14.40
2023-05-15T04:02:13.685Z,14.50
2023-05-15T04:03:13.529Z,14.70
2023-05-15T04:04:13.583Z,14.60
2023-05-15T04:05:13.623Z,14.60
2023-05-15T04:06:13.575Z,14.50
2023-05-15T04:07:13.602Z,14.50
2023-05-15T04:08:13.670Z,14.70
2023-05-15T04:09:13.409Z,14.70
2023-05-15T04:10:13.337Z,14.70
2023-05-15T04:11:13.376Z,14.50
2023-05-15T04:12:13.420Z,14.60
2023-05-15T04:13:13.198Z,14.40
2023-05-15T04:14:13.019Z,14.70
2023-05-15T04:15:12.826Z,14.50
2023-05-15T04:16:13.889Z,14.60
2023-05-15T04:17:13.020Z,14.70
2023-05-15T04:18:12.940Z,14.90
2023-05-15T04:19:12.970Z,14.50
2023-05-15T04:20:12.794Z,14.70
2023-05-15T04:21:13.989Z,14.90
2023-05-15T04:22:12.889Z,14.60
2023-05-15T04:23:13.968Z,14.90
2023-05-15T04:24:13.583Z,14.70
2023-05-15T04:25:13.736Z,14.50
2023-05-15T04:26:13.676Z,14.60
2023-05-15T04:27:13.666Z,14.60
2023-05-15T04:28:13.552Z,14.50
2023-05-15T04:29:13.423Z,14.50
2023-05-15T04:30:13.285Z,14.80
2023-05-15T04:31:13.267Z,14.70
2023-05-15T04:32:13.261Z,14.90
2023-05-15T04:33:13.335Z,14.80
2023-05-15T04:34:13.431Z,15.00
2023-05-15T04:35:13.340Z,15.20
2023-05-15T04:36:13.663Z,15.40
2023-05-15T04:37:13.813Z,15.70
2023-05-15T04:38:13.779Z,15.50
2023-05-15T04:39:13.696Z,14.90
2023-05-15T04:40:13.628Z,15.20
2023-05-15T04:41:13.540Z,15.10
2023-05-15T04:42:13.497Z,15.50
2023-05-15T04:43:13.567Z,15.20
2023-05-15T04:44:13.872Z,15.20
2023-05-15T04:45:13.809Z,15.10
2023-05-15T04:46:13.701Z,15.20
2023-05-15T04:47:13.695Z,15.40
2023-05-15T04:48:13.697Z,15.50
2023-05-15T04:49:13.654Z,15.50
2023-05-15T04:50:13.573Z,15.40
2023-05-15T04:51:13.664Z,15.30
2023-05-15T04:52:13.446Z,15.00
2023-05-15T04:53:13.653Z,14.90
2023-05-15T04:54:13.541Z,15.60
2023-05-15T04:55:13.752Z,15.80
2023-05-15T04:56:13.584Z,15.60
2023-05-15T04:57:13.698Z,16.00
2023-05-15T04:58:13.529Z,16.20
2023-05-15T04:59:13.669Z,15.90
2023-05-15T05:00:13.679Z,15.50
2023-05-15T05:01:13.797Z,15.90
2023-05-15T05:02:13.829Z,16.10
2023-05-15T05:03:13.825Z,15.50
2023-05-15T05:04:13.923Z,15.80
2023-05-15T05:05:13.054Z,15.70
2023-05-15T05:06:13.047Z,15.70
2023-05-15T05:07:13.049Z,15.70
2023-05-15T05:08:13.087Z,15.50
2023-05-15T05:09:13.621Z,15.50
2023-05-15T05:10:13.491Z,15.50
2023-05-15T05:11:13.620Z,15.20
2023-05-15T05:12:13.666Z,15.50
2023-05-15T05:13:13.699Z,15.40
2023-05-15T05:14:13.559Z,15.40
2023-05-15T05:15:14.278Z,15.40
2023-05-15T05:16:13.336Z,15.80
2023-05-15T05:17:13.767Z,15.80
2023-05-15T05:18:13.875Z,16.00
2023-05-15T05:20:13.673Z,15.30
2023-05-15T05:21:13.666Z,15.30
2023-05-15T05:22:13.922Z,15.60
2023-05-15T05:23:13.660Z,15.00
2023-05-15T05:24:13.389Z,15.80
2023-05-15T05:25:13.234Z,15.20
2023-05-15T05:26:13.258Z,15.50
2023-05-15T05:27:13.254Z,15.50
2023-05-15T05:28:13.046Z,15.20
2023-05-15T05:29:12.927Z,15.10
2023-05-15T05:30:13.068Z,15.20
2023-05-15T05:31:12.996Z,15.70
2023-05-15T05:32:12.959Z,15.20
2023-05-15T05:33:12.962Z,15.20
2023-05-15T05:34:12.751Z,15.30
2023-05-15T05:35:13.924Z,15.00
2023-05-15T05:36:13.008Z,15.20
2023-05-15T05:37:13.061Z,15.70
2023-05-15T05:38:13.069Z,15.70
2023-05-15T05:39:12.951Z,15.50
2023-05-15T05:40:12.859Z,15.80
2023-05-15T05:41:13.766Z,15.10
2023-05-15T05:42:18.777Z,15.70
2023-05-15T05:43:13.671Z,15.30
2023-05-15T05:44:13.736Z,15.60
2023-05-15T05:45:17.657Z,15.30
2023-05-15T05:46:13.633Z,15.40
2023-05-15T05:47:13.670Z,15.10
2023-05-15T05:48:14.485Z,15.50
2023-05-15T05:49:13.287Z,15.30
2023-05-15T05:50:13.206Z,15.50
2023-05-15T05:51:13.207Z,15.20
2023-05-15T05:52:13.496Z,15.70
2023-05-15T05:53:13.365Z,15.60
2023-05-15T05:54:13.570Z,15.80
2023-05-15T05:55:13.433Z,15.40
2023-05-15T05:56:13.421Z,15.20
2023-05-15T05:57:13.538Z,15.50
2023-05-15T05:58:21.691Z,15.10
2023-05-15T05:59:13.098Z,15.40
2023-05-15T06:00:12.883Z,15.70
2023-05-15T06:01:13.910Z,15.40
2023-05-15T06:02:12.932Z,15.70
2023-05-15T06:03:12.916Z,15.20
2023-05-15T06:04:12.861Z,15.20
2023-05-15T06:05:13.004Z,14.90
2023-05-15T06:06:12.701Z,15.40
2023-05-15T06:07:13.688Z,15.50
2023-05-15T06:08:13.680Z,15.30
2023-05-15T06:09:13.713Z,15.00
2023-05-15T06:10:13.772Z,15.10
2023-05-15T06:11:13.755Z,15.20
2023-05-15T06:12:13.687Z,15.20
2023-05-15T06:13:13.739Z,15.00
2023-05-15T06:14:13.707Z,15.00
2023-05-15T06:15:13.520Z,14.80
2023-05-15T06:16:13.286Z,15.00
2023-05-15T06:17:13.248Z,15.40
2023-05-15T06:18:13.789Z,15.80
2023-05-15T06:19:13.980Z,15.90
2023-05-15T06:20:12.978Z,15.60
2023-05-15T06:21:12.841Z,15.30
2023-05-15T06:22:13.796Z,15.30
2023-05-15T06:23:14.032Z,15.30
2023-05-15T06:24:12.985Z,15.00
2023-05-15T06:25:13.113Z,14.90
2023-05-15T06:26:12.965Z,15.20
2023-05-15T06:27:13.070Z,14.90
2023-05-15T06:28:13.001Z,14.80
2023-05-15T06:29:12.951Z,14.80
2023-05-15T06:30:12.904Z,15.30
2023-05-15T06:31:12.887Z,15.20
2023-05-15T06:32:12.769Z,15.30
2023-05-15T06:33:13.985Z,14.80
2023-05-15T06:34:13.300Z,15.40
2023-05-15T06:35:13.497Z,15.20
2023-05-15T06:36:13.960Z,15.00
2023-05-15T06:37:13.219Z,15.30
2023-05-15T06:38:13.014Z,15.10
2023-05-15T06:39:12.970Z,15.60
2023-05-15T06:40:13.138Z,16.00
2023-05-15T06:41:12.955Z,16.00
2023-05-15T06:42:12.961Z,15.70
2023-05-15T06:43:12.864Z,15.50
2023-05-15T06:44:13.634Z,15.80
2023-05-15T06:45:13.561Z,16.20
2023-05-15T06:46:13.620Z,15.90
2023-05-15T06:47:13.902Z,15.40
2023-05-15T06:48:12.963Z,15.60
2023-05-15T06:49:12.871Z,15.70
2023-05-15T06:50:13.880Z,16.00
2023-05-15T06:51:13.824Z,15.80
2023-05-15T06:52:13.757Z,15.50
2023-05-15T06:53:14.518Z,16.30
2023-05-15T06:54:13.658Z,16.30
2023-05-15T06:55:13.517Z,16.40
2023-05-15T06:56:13.690Z,16.20
2023-05-15T06:57:14.022Z,16.20
2023-05-15T06:58:12.977Z,16.00
2023-05-15T06:59:13.113Z,15.70
2023-05-15T07:00:48.204Z,16.30
2023-05-15T07:01:01.404Z,16.30
2023-05-15T07:01:13.078Z,16.20
2023-05-15T07:02:13.268Z,16.40
2023-05-15T07:03:13.493Z,16.20
2023-05-15T07:04:13.524Z,16.10
2023-05-15T07:05:13.792Z,16.70
2023-05-15T07:06:13.875Z,16.30
2023-05-15T07:07:13.674Z,17.10
2023-05-15T07:08:13.532Z,16.80
2023-05-15T07:09:13.681Z,16.60
2023-05-15T07:10:13.603Z,16.40
2023-05-15T07:11:13.700Z,17.00
2023-05-15T07:12:13.529Z,16.50
2023-05-15T07:13:13.301Z,16.90
2023-05-15T07:14:13.316Z,16.90
2023-05-15T07:15:13.152Z,17.00
2023-05-15T07:16:13.060Z,17.30
2023-05-15T07:17:12.905Z,16.40
2023-05-15T07:18:14.260Z,16.20
2023-05-15T07:19:13.333Z,16.70
2023-05-15T07:20:13.326Z,16.70
2023-05-15T07:21:13.257Z,17.10
2023-05-15T07:22:13.055Z,16.70
2023-05-15T07:23:13.057Z,17.20
2023-05-15T07:24:13.216Z,17.10
2023-05-15T07:25:15.554Z,16.50
2023-05-15T07:26:16.905Z,16.70
2023-05-15T07:27:13.382Z,16.30
2023-05-15T07:28:13.188Z,16.80
2023-05-15T07:29:12.995Z,16.90
2023-05-15T07:30:12.895Z,17.00
2023-05-15T07:31:14.004Z,17.00
2023-05-15T07:32:12.807Z,16.40
2023-05-15T07:33:13.751Z,16.40
2023-05-15T07:34:13.776Z,16.50
2023-05-15T07:35:13.754Z,16.60
2023-05-15T07:36:13.574Z,17.10
2023-05-15T07:37:14.871Z,17.60
2023-05-15T07:38:13.109Z,17.30
2023-05-15T07:39:13.205Z,16.50
2023-05-15T07:40:13.591Z,16.60
2023-05-15T07:41:13.549Z,16.20
2023-05-15T07:42:13.691Z,16.40
2023-05-15T07:43:13.938Z,16.50
2023-05-15T07:44:13.059Z,16.60
2023-05-15T07:45:12.992Z,16.90
2023-05-15T07:46:13.177Z,16.80
2023-05-15T07:47:13.363Z,16.80
2023-05-15T07:48:13.375Z,16.70
2023-05-15T07:49:13.411Z,16.80
2023-05-15T07:50:13.317Z,16.60
2023-05-15T07:51:13.528Z,16.90
2023-05-15T07:52:13.448Z,16.90
2023-05-15T07:53:13.404Z,16.60
2023-05-15T07:54:13.364Z,16.70
2023-05-15T07:55:13.234Z,16.40
2023-05-15T07:56:13.127Z,16.90
2023-05-15T07:57:13.070Z,16.50
2023-05-15T07:58:13.140Z,16.90
2023-05-15T07:59:13.163Z,17.20
2023-05-15T08:00:12.982Z,16.90
2023-05-15T08:01:12.832Z,16.40
2023-05-15T08:02:13.631Z,16.10
2023-05-15T08:03:13.972Z,16.40
2023-05-15T08:04:12.973Z,16.80
2023-05-15T08:05:12.873Z,16.70
2023-05-15T08:06:13.860Z,17.30
2023-05-15T08:07:13.663Z,17.70
2023-05-15T08:08:13.471Z,17.20
2023-05-15T08:09:13.295Z,17.40
2023-05-15T08:10:13.084Z,17.60
2023-05-15T08:11:13.781Z,16.60
2023-05-15T08:12:13.602Z,16.70
2023-05-15T08:13:13.585Z,16.20
2023-05-15T08:14:13.899Z,15.90
2023-05-15T08:15:12.922Z,16.40
2023-05-15T08:16:13.130Z,16.40
2023-05-15T08:17:13.793Z,16.60
2023-05-15T08:18:13.613Z,17.40
2023-05-15T08:19:13.643Z,17.00
2023-05-15T08:20:13.542Z,17.50
2023-05-15T08:21:13.723Z,17.70
2023-05-15T08:22:13.710Z,17.10
2023-05-15T08:23:13.544Z,16.80
2023-05-15T08:24:13.332Z,17.30
2023-05-15T08:25:13.300Z,17.50
2023-05-15T08:26:13.140Z,18.00
2023-05-15T08:27:12.983Z,16.90
2023-05-15T08:28:12.912Z,17.10
2023-05-15T08:29:13.206Z,16.90
2023-05-15T08:30:13.446Z,16.90
2023-05-15T08:31:13.253Z,17.30
2023-05-15T08:32:13.298Z,16.60
2023-05-15T08:33:13.132Z,17.10
2023-05-15T08:34:13.057Z,17.40
2023-05-15T08:35:12.960Z,17.70
2023-05-15T08:36:12.997Z,17.60
2023-05-15T08:37:12.951Z,18.00
2023-05-15T08:38:12.764Z,18.00
2023-05-15T08:39:13.556Z,17.40
2023-05-15T08:40:13.427Z,17.20
2023-05-15T08:41:13.348Z,16.70
2023-05-15T08:42:13.561Z,16.30
2023-05-15T08:43:13.723Z,16.60
2023-05-15T08:44:13.647Z,17.40
2023-05-15T08:45:13.618Z,17.00
2023-05-15T08:46:13.840Z,17.10
2023-05-15T08:47:13.720Z,17.10
2023-05-15T08:48:13.612Z,16.80
2023-05-15T08:49:13.875Z,16.70
2023-05-15T08:50:12.770Z,17.00
2023-05-15T08:51:13.895Z,17.30
2023-05-15T08:52:12.729Z,17.20
2023-05-15T08:53:13.605Z,17.10
2023-05-15T08:54:13.634Z,17.50
2023-05-15T08:55:13.785Z,17.30
2023-05-15T08:56:13.666Z,17.70
2023-05-15T08:57:13.611Z,17.60
2023-05-15T08:58:13.433Z,16.60
2023-05-15T08:59:13.289Z,16.60
2023-05-15T09:00:13.150Z,16.80
2023-05-15T09:01:13.563Z,17.00
2023-05-15T09:02:13.648Z,16.70
2023-05-15T09:03:13.689Z,17.30
2023-05-15T09:04:13.732Z,17.40
2023-05-15T09:05:13.540Z,17.50
2023-05-15T09:06:13.275Z,17.70
2023-05-15T09:07:13.371Z,18.20
2023-05-15T09:08:13.211Z,17.90
2023-05-15T09:09:13.085Z,17.70
2023-05-15T09:10:13.190Z,18.10
2023-05-15T09:11:13.228Z,18.50
2023-05-15T09:12:13.157Z,18.60
2023-05-15T09:13:13.465Z,18.70
2023-05-15T09:14:13.546Z,19.10
2023-05-15T09:15:18.494Z,19.60
2023-05-15T09:16:13.367Z,19.20
2023-05-15T09:17:13.350Z,18.70
2023-05-15T09:18:13.195Z,18.30
2023-05-15T09:19:13.317Z,18.90
2023-05-15T09:20:13.475Z,19.80
2023-05-15T09:21:13.284Z,19.00
2023-05-15T09:22:13.465Z,18.20
2023-05-15T09:23:13.578Z,18.90
2023-05-15T09:24:13.427Z,19.10
2023-05-15T09:25:13.230Z,19.50
2023-05-15T09:26:13.097Z,19.70
2023-05-15T09:27:13.034Z,19.80
2023-05-15T09:28:12.974Z,19.20
2023-05-15T09:29:12.763Z,19.90
2023-05-15T09:30:13.704Z,19.70
2023-05-15T09:31:13.819Z,18.30
2023-05-15T09:32:13.950Z,19.00
2023-05-15T09:33:13.136Z,19.30
2023-05-15T09:34:13.026Z,19.50
2023-05-15T09:35:12.829Z,20.40
2023-05-15T09:36:13.865Z,21.50
2023-05-15T09:37:13.710Z,20.40
2023-05-15T09:38:13.414Z,20.20
2023-05-15T09:39:13.409Z,21.80
2023-05-15T09:40:13.289Z,20.00
2023-05-15T09:41:13.094Z,19.70
2023-05-15T09:42:12.862Z,20.80
2023-05-15T09:43:13.725Z,20.20
2023-05-15T09:44:13.517Z,19.30
2023-05-15T09:45:13.382Z,19.90
2023-05-15T09:46:13.571Z,20.60
2023-05-15T09:47:13.674Z,21.50
2023-05-15T09:48:13.866Z,21.20
2023-05-15T09:49:12.878Z,20.80
2023-05-15T09:50:13.827Z,21.60
2023-05-15T09:51:13.951Z,20.70
2023-05-15T09:52:13.020Z,20.30
2023-05-15T09:53:13.147Z,20.30
2023-05-15T09:54:13.319Z,20.60
2023-05-15T09:55:13.868Z,20.80
2023-05-15T09:56:13.578Z,19.50
2023-05-15T09:57:13.400Z,20.50
2023-05-15T09:58:13.162Z,20.40
2023-05-15T09:59:13.317Z,21.70
2023-05-15T10:00:14.526Z,21.20
2023-05-15T10:01:13.673Z,20.60
2023-05-15T10:02:13.708Z,21.20
2023-05-15T10:03:13.910Z,20.30
2023-05-15T10:04:12.923Z,20.30
2023-05-15T10:05:12.973Z,20.40
2023-05-15T10:06:12.841Z,19.30
2023-05-15T10:07:13.072Z,19.20
2023-05-15T10:08:13.050Z,20.10
2023-05-15T10:09:13.001Z,20.70
2023-05-15T10:10:12.785Z,20.90
2023-05-15T10:11:14.055Z,20.60
2023-05-15T10:12:13.051Z,20.20
2023-05-15T10:13:13.152Z,20.70
2023-05-15T10:14:13.312Z,20.00
2023-05-15T10:15:13.208Z,20.20
2023-05-15T10:16:13.656Z,20.40
2023-05-15T10:17:14.035Z,20.40
2023-05-15T10:18:13.166Z,20.60
2023-05-15T10:19:12.952Z,20.00
2023-05-15T10:20:13.178Z,20.00
2023-05-15T10:21:12.940Z,20.50
2023-05-15T10:22:12.645Z,19.80
2023-05-15T10:23:13.441Z,20.00
2023-05-15T10:24:13.308Z,20.20
2023-05-15T10:25:13.219Z,20.40
2023-05-15T10:26:13.155Z,19.80
2023-05-15T10:27:13.315Z,20.50
2023-05-15T10:28:13.286Z,20.30
2023-05-15T10:29:13.196Z,21.80
2023-05-15T10:30:13.160Z,22.20
2023-05-15T10:31:13.370Z,21.30
2023-05-15T10:32:13.300Z,21.30
2023-05-15T10:33:13.383Z,21.30
2023-05-15T10:34:13.349Z,21.50
2023-05-15T10:35:14.179Z,21.30
2023-05-15T10:36:12.990Z,21.30
2023-05-15T10:37:12.818Z,21.70
2023-05-15T10:38:18.700Z,22.80
2023-05-15T10:39:13.475Z,23.30
2023-05-15T10:40:13.207Z,23.30
2023-05-15T10:41:17.770Z,23.10
2023-05-15T10:42:13.306Z,21.90
2023-05-15T10:43:13.274Z,20.50
2023-05-15T10:44:13.263Z,20.00
2023-05-15T10:45:13.125Z,20.20
2023-05-15T10:46:13.513Z,20.40
2023-05-15T10:47:13.381Z,20.80
2023-05-15T10:48:13.663Z,21.20
2023-05-15T10:49:13.842Z,21.90
2023-05-15T10:50:13.886Z,21.70
2023-05-15T10:51:13.913Z,21.50
2023-05-15T10:52:12.816Z,21.80
2023-05-15T10:53:13.937Z,22.50
2023-05-15T10:54:12.800Z,23.70
2023-05-15T10:55:13.688Z,22.80
2023-05-15T10:56:13.772Z,22.10
2023-05-15T10:57:14.519Z,22.40
2023-05-15T10:58:13.261Z,21.90
2023-05-15T10:59:13.541Z,21.70
2023-05-15T11:00:13.481Z,21.60
2023-05-15T11:01:13.383Z,22.60
2023-05-15T11:02:13.303Z,22.70
2023-05-15T11:03:13.268Z,21.20
2023-05-15T11:04:13.332Z,21.70
2023-05-15T11:05:13.165Z,21.30
2023-05-15T11:06:12.967Z,20.70
2023-05-15T11:07:13.069Z,22.30
2023-05-15T11:08:12.943Z,21.90
2023-05-15T11:09:12.759Z,21.90
2023-05-15T11:10:13.595Z,21.90
2023-05-15T11:11:13.623Z,22.50
2023-05-15T11:12:13.756Z,23.30
2023-05-15T11:13:13.783Z,23.30
2023-05-15T11:14:13.579Z,23.40
2023-05-15T11:15:13.452Z,23.50
2023-05-15T11:16:14.163Z,23.80
2023-05-15T11:17:13.301Z,23.70
2023-05-15T11:18:13.472Z,23.50
2023-05-15T11:19:13.327Z,23.30
2023-05-15T11:20:13.528Z,20.70
2023-05-15T11:21:13.369Z,21.20
2023-05-15T11:22:13.117Z,22.40
2023-05-15T11:23:13.711Z,22.70
2023-05-15T11:24:13.528Z,22.70
2023-05-15T11:25:13.753Z,21.80
2023-05-15T11:26:13.538Z,22.10
2023-05-15T11:27:13.283Z,23.70
2023-05-15T11:28:13.422Z,23.00
2023-05-15T11:29:13.524Z,23.30
2023-05-15T11:30:13.757Z,23.40
2023-05-15T11:31:13.634Z,23.00
2023-05-15T11:32:13.932Z,23.40
2023-05-15T11:33:12.864Z,23.30
2023-05-15T11:34:12.825Z,23.10
2023-05-15T11:35:13.618Z,23.00
2023-05-15T11:36:13.655Z,22.00
2023-05-15T11:37:13.669Z,22.00
2023-05-15T11:38:13.697Z,23.20
2023-05-15T11:39:13.692Z,23.00
2023-05-15T11:40:13.589Z,23.30
2023-05-15T11:41:13.364Z,23.60
2023-05-15T11:42:14.420Z,23.70
2023-05-15T11:43:13.339Z,22.10
2023-05-15T11:44:13.153Z,22.90
2023-05-15T11:45:13.063Z,23.60
2023-05-15T11:46:13.019Z,23.30
2023-05-15T11:47:12.942Z,22.00
2023-05-15T11:48:12.934Z,23.10
2023-05-15T11:49:12.946Z,23.30
2023-05-15T11:50:12.902Z,22.80
2023-05-15T11:51:12.992Z,22.80
2023-05-15T11:52:12.787Z,22.60
2023-05-15T11:53:13.643Z,23.40
2023-05-15T11:54:13.593Z,23.60
2023-05-15T11:55:13.617Z,22.60
2023-05-15T11:56:13.355Z,22.90
2023-05-15T11:57:13.276Z,21.90
2023-05-15T11:58:13.320Z,22.50
2023-05-15T11:59:13.188Z,22.20
2023-05-15T12:00:13.217Z,22.90
2023-05-15T12:01:13.457Z,22.20
2023-05-15T12:02:13.295Z,22.70
2023-05-15T12:03:13.365Z,22.00
2023-05-15T12:04:13.663Z,22.20
2023-05-15T12:05:13.935Z,21.90
2023-05-15T12:06:13.104Z,23.50
2023-05-15T12:07:12.849Z,24.30
2023-05-15T12:08:13.956Z,24.40
2023-05-15T12:09:12.789Z,22.50
2023-05-15T12:10:13.630Z,22.00
2023-05-15T12:11:13.942Z,21.90
2023-05-15T12:12:12.882Z,22.40
2023-05-15T12:13:13.695Z,23.30
2023-05-15T12:14:13.461Z,23.70
2023-05-15T12:15:13.299Z,23.50
2023-05-15T12:16:13.087Z,23.10
2023-05-15T12:17:12.939Z,22.70
2023-05-15T12:18:12.730Z,23.30
2023-05-15T12:19:14.034Z,23.30
2023-05-15T12:20:13.057Z,24.30
2023-05-15T12:21:13.779Z,24.10
2023-05-15T12:22:13.757Z,23.90
2023-05-15T12:23:13.643Z,22.10
2023-05-15T12:24:13.715Z,21.80
2023-05-15T12:25:13.572Z,21.50
2023-05-15T12:26:13.425Z,21.30
2023-05-15T12:27:13.229Z,21.80
2023-05-15T12:28:13.387Z,22.30
2023-05-15T12:29:13.197Z,22.70
2023-05-15T12:30:13.080Z,23.00
2023-05-15T12:31:13.036Z,23.80
2023-05-15T12:32:12.981Z,23.60
2023-05-15T12:33:12.901Z,23.80
2023-05-15T12:34:12.765Z,23.80
2023-05-15T12:35:13.811Z,25.30
2023-05-15T12:36:13.696Z,23.30
2023-05-15T12:37:13.531Z,23.30
2023-05-15T12:38:13.362Z,23.90
2023-05-15T12:39:13.343Z,22.80
2023-05-15T12:40:13.294Z,23.20
2023-05-15T12:41:13.158Z,23.60
2023-05-15T12:42:13.130Z,23.50
2023-05-15T12:43:13.126Z,23.10
2023-05-15T12:44:13.036Z,24.60
2023-05-15T12:45:12.838Z,23.90
2023-05-15T12:46:13.911Z,24.10
2023-05-15T12:47:13.165Z,25.00
2023-05-15T12:48:12.930Z,24.40
2023-05-15T12:49:12.727Z,22.10
2023-05-15T12:50:13.576Z,22.00
2023-05-15T12:51:13.664Z,21.50
2023-05-15T12:52:13.748Z,22.20